TimeHST,TemperatureF,Dew PointF,Humidity,Sea Level PressureIn,VisibilityMPH,Wind Direction,Wind SpeedMPH,Gust SpeedMPH,PrecipitationIn,Events,Conditions,WindDirDegrees,DateUTC
12:23 AM,78.8,66.2,65,29.89,10.0,ESE,8.1,-,N/A,,Overcast,120,2012-11-06 10:23:00
12:44 AM,78.8,66.2,65,29.88,10.0,SE,6.9,-,N/A,,Overcast,130,2012-11-06 10:44:00
12:53 AM,79.0,66.9,66,29.88,10.0,SE,9.2,-,N/A,,Overcast,140,2012-11-06 10:53:00
1:53 AM,78.1,66.9,68,29.88,10.0,ESE,9.2,-,N/A,,Mostly Cloudy,120,2012-11-06 11:53:00
2:53 AM,78.1,64.9,64,29.87,10.0,ESE,8.1,-,N/A,,Scattered Clouds,110,2012-11-06 12:53:00
3:53 AM,77.0,64.9,66,29.86,10.0,ESE,6.9,-,N/A,,Clear,120,2012-11-06 13:53:00
4:53 AM,75.9,64.9,69,29.87,10.0,SE,5.8,-,N/A,,Partly Cloudy,140,2012-11-06 14:53:00
5:53 AM,75.0,64.0,69,29.87,10.0,SSE,3.5,-,N/A,,Clear,160,2012-11-06 15:53:00
6:53 AM,75.0,62.1,64,29.89,10.0,North,3.5,-,N/A,,Clear,350,2012-11-06 16:53:00
7:51 AM,78.8,64.4,61,29.90,10.0,Calm,Calm,-,N/A,,Mostly Cloudy,0,2012-11-06 17:51:00
7:53 AM,78.1,64.9,64,29.91,10.0,ESE,6.9,-,N/A,,Clear,110,2012-11-06 17:53:00
8:53 AM,81.0,68.0,65,29.91,10.0,South,6.9,-,N/A,,Clear,190,2012-11-06 18:53:00
9:53 AM,82.0,69.1,65,29.92,10.0,WSW,8.1,-,N/A,,Scattered Clouds,250,2012-11-06 19:53:00
10:53 AM,82.9,70.0,65,29.91,10.0,WSW,6.9,-,N/A,,Partly Cloudy,240,2012-11-06 20:53:00
11:53 AM,84.0,70.0,63,29.88,10.0,SW,9.2,-,N/A,,Clear,220,2012-11-06 21:53:00
12:53 PM,84.9,69.1,59,29.86,10.0,South,10.4,-,N/A,,Partly Cloudy,190,2012-11-06 22:53:00
1:53 PM,84.0,68.0,58,29.83,10.0,South,10.4,-,N/A,,Partly Cloudy,180,2012-11-06 23:53:00
2:53 PM,82.9,68.0,60,29.83,10.0,South,12.7,-,N/A,,Mostly Cloudy,170,2012-11-07 00:53:00
3:53 PM,82.0,66.9,60,29.83,10.0,South,12.7,-,N/A,,Clear,180,2012-11-07 01:53:00
4:53 PM,82.0,68.0,62,29.84,10.0,South,10.4,-,N/A,,Partly Cloudy,170,2012-11-07 02:53:00
5:53 PM,81.0,66.9,62,29.86,10.0,SSE,4.6,-,N/A,,Mostly Cloudy,160,2012-11-07 03:53:00
6:53 PM,80.1,66.9,64,29.88,10.0,SE,5.8,-,N/A,,Clear,140,2012-11-07 04:53:00
7:53 PM,79.0,64.0,60,29.91,10.0,NNE,6.9,-,N/A,,Clear,20,2012-11-07 05:53:00
8:53 PM,79.0,61.0,54,29.91,10.0,SW,5.8,-,N/A,,Clear,220,2012-11-07 06:53:00
9:50 PM,78.8,62.6,57,29.93,10.0,NNE,3.5,-,N/A,,Mostly Cloudy,20,2012-11-07 07:50:00
9:53 PM,79.0,63.0,58,29.93,10.0,Calm,Calm,-,N/A,,Mostly Cloudy,0,2012-11-07 07:53:00
10:53 PM,78.1,66.0,66,29.93,10.0,Calm,Calm,-,N/A,,Mostly Cloudy,0,2012-11-07 08:53:00
11:53 PM,78.1,66.9,68,29.91,10.0,East,6.9,-,N/A,,Partly Cloudy,100,2012-11-07 09:53:00